createdAt,value
2022-10-14T00:02:11.195Z,100352.69
2022-10-14T00:04:38.699Z,100264.03
2022-10-14T00:07:06.165Z,100358.97
2022-10-14T00:09:34.917Z,100356.31
2022-10-14T00:12:02.381Z,100363.34
2022-10-14T00:14:29.827Z,100349.50
2022-10-14T00:16:57.330Z,100350.13
2022-10-14T00:19:24.790Z,100348.44
2022-10-14T00:21:52.235Z,100351.97
2022-10-14T00:24:19.695Z,100350.13
2022-10-14T00:26:48.487Z,100352.78
2022-10-14T00:29:17.737Z,100357.28
2022-10-14T00:31:45.192Z,100344.91
2022-10-14T00:34:13.038Z,100342.25
2022-10-14T00:36:41.622Z,100346.63
2022-10-14T00:39:09.059Z,100352.88
2022-10-14T00:41:36.855Z,100347.56
2022-10-14T00:44:06.600Z,100350.22
2022-10-14T00:46:35.029Z,100273.06
2022-10-14T00:49:04.757Z,100261.00
2022-10-14T00:51:32.230Z,100344.91
2022-10-14T00:53:59.659Z,100273.25
2022-10-14T00:56:28.210Z,100340.53
2022-10-14T00:58:55.656Z,100344.16
2022-10-14T01:01:24.467Z,100330.38
2022-10-14T01:03:51.915Z,100338.84
2022-10-14T01:06:23.842Z,100318.47
2022-10-14T01:08:55.955Z,100306.22
2022-10-14T01:11:26.327Z,100334.66
2022-10-14T01:13:56.953Z,100344.16
2022-10-14T01:16:27.441Z,100342.34
2022-10-14T01:19:01.386Z,100338.84
2022-10-14T01:21:30.113Z,100334.38
2022-10-14T01:24:22.805Z,100298.69
2022-10-14T01:27:26.157Z,100337.03
2022-10-14T01:30:01.689Z,100335.31
2022-10-14T01:32:30.291Z,100267.19
2022-10-14T01:35:01.232Z,100332.66
2022-10-14T01:37:29.672Z,100332.66
2022-10-14T01:39:58.170Z,100330.97
2022-10-14T01:42:26.997Z,100326.47
2022-10-14T01:44:56.223Z,100260.53
2022-10-14T01:47:24.988Z,100274.97
2022-10-14T01:49:55.029Z,100296.53
2022-10-14T01:52:27.463Z,100316.03
2022-10-14T01:54:58.209Z,100294.47
2022-10-14T01:57:27.206Z,100306.16
2022-10-14T01:59:54.707Z,100308.81
2022-10-14T02:02:22.407Z,100307.03
2022-10-14T02:04:51.452Z,100302.72
2022-10-14T02:07:20.508Z,100298.19
2022-10-14T02:09:49.889Z,100298.19
2022-10-14T02:12:24.114Z,100303.50
2022-10-14T02:14:53.985Z,100300.06
2022-10-14T02:17:22.718Z,100286.66
2022-10-14T02:19:53.867Z,100297.50
2022-10-14T02:22:24.665Z,100306.34
2022-10-14T02:24:52.842Z,100299.25
2022-10-14T02:27:20.806Z,100294.75
2022-10-14T02:29:48.229Z,100293.91
2022-10-14T02:32:16.477Z,100294.84
2022-10-14T02:34:44.272Z,100290.41
2022-10-14T02:37:13.234Z,100288.59
2022-10-14T02:39:44.963Z,100281.94
2022-10-14T02:42:12.414Z,100290.41
2022-10-14T02:44:39.880Z,100292.19
2022-10-14T02:47:07.328Z,100293.16
2022-10-14T02:49:34.769Z,100290.50
2022-10-14T02:52:02.189Z,100281.56
2022-10-14T02:54:30.950Z,100278.06
2022-10-14T02:56:58.396Z,100275.59
2022-10-14T02:59:25.996Z,100277.09
2022-10-14T03:01:53.476Z,100278.06
2022-10-14T03:04:20.961Z,100279.00
2022-10-14T03:06:48.400Z,100267.41
2022-10-14T03:09:15.972Z,100272.75
2022-10-14T03:11:44.725Z,100269.41
2022-10-14T03:14:12.167Z,100269.31
2022-10-14T03:16:39.602Z,100265.78
2022-10-14T03:19:07.037Z,100258.78
2022-10-14T03:21:34.476Z,100265.78
2022-10-14T03:24:02.144Z,100262.19
2022-10-14T03:26:29.628Z,100237.28
2022-10-14T03:28:58.482Z,100256.13
2022-10-14T03:31:26.026Z,100252.50
2022-10-14T03:33:53.451Z,100258.69
2022-10-14T03:36:20.940Z,100252.59
2022-10-14T03:38:48.371Z,100245.56
2022-10-14T03:41:15.800Z,100252.59
2022-10-14T03:43:43.234Z,100256.22
2022-10-14T03:46:11.976Z,100248.28
2022-10-14T03:48:39.416Z,100234.41
2022-10-14T03:51:06.838Z,100257.06
2022-10-14T03:53:34.245Z,100263.22
2022-10-14T03:56:01.670Z,100258.88
2022-10-14T03:58:29.089Z,100266.84
2022-10-14T04:00:56.531Z,100261.53
2022-10-14T04:03:25.428Z,100261.53
2022-10-14T04:05:52.894Z,100266.84
2022-10-14T04:08:20.351Z,100258.00
2022-10-14T04:10:52.173Z,100255.34
2022-10-14T04:13:19.618Z,100266.84
2022-10-14T04:15:47.060Z,100260.66
2022-10-14T04:18:14.496Z,100265.06
2022-10-14T04:20:43.274Z,100258.00
2022-10-14T04:23:10.746Z,100258.06
2022-10-14T04:25:38.719Z,100257.22
2022-10-14T04:28:06.348Z,100199.97
2022-10-14T04:30:33.769Z,100249.25
2022-10-14T04:33:01.225Z,100247.44
2022-10-14T04:35:28.642Z,100243.94
2022-10-14T04:37:57.468Z,100245.72
2022-10-14T04:40:26.024Z,100241.28
2022-10-14T04:42:56.195Z,100245.72
2022-10-14T04:45:23.531Z,100244.03
2022-10-14T04:47:50.985Z,100243.06
2022-10-14T04:50:18.858Z,100228.47
2022-10-14T04:52:46.310Z,100240.41
2022-10-14T04:55:15.137Z,100234.22
2022-10-14T04:57:43.781Z,100181.38
2022-10-14T05:00:12.977Z,100236.06
2022-10-14T05:02:40.434Z,100226.44
2022-10-14T05:05:08.395Z,100186.41
2022-10-14T05:07:35.925Z,100235.97
2022-10-14T05:10:04.529Z,100229.78
2022-10-14T05:12:33.455Z,100227.97
2022-10-14T05:15:00.897Z,100242.97
2022-10-14T05:17:28.348Z,100234.22
2022-10-14T05:19:55.757Z,100226.34
2022-10-14T05:22:23.638Z,100234.22
2022-10-14T05:24:51.390Z,100234.31
2022-10-14T05:27:18.837Z,100227.22
2022-10-14T05:29:48.738Z,100228.09
2022-10-14T05:32:16.192Z,100232.53
2022-10-14T05:34:43.633Z,100232.53
2022-10-14T05:37:11.094Z,100233.41
2022-10-14T05:39:38.546Z,100187.28
2022-10-14T05:42:06.091Z,100232.44
2022-10-14T05:44:33.532Z,100230.66
2022-10-14T05:47:02.292Z,100228.75
2022-10-14T05:49:29.704Z,100229.63
2022-10-14T05:51:57.132Z,100222.50
2022-10-14T05:54:24.564Z,100229.53
2022-10-14T05:56:52.022Z,100228.75
2022-10-14T05:59:19.471Z,100159.63
2022-10-14T06:01:46.936Z,100219.34
2022-10-14T06:04:18.593Z,100221.13
2022-10-14T06:06:46.066Z,100221.31
2022-10-14T06:09:13.577Z,100147.09
2022-10-14T06:11:41.131Z,100226.53
2022-10-14T06:14:08.556Z,100230.84
2022-10-14T06:16:36.001Z,100205.13
2022-10-14T06:19:03.436Z,100231.75
2022-10-14T06:21:32.541Z,100234.41
2022-10-14T06:23:59.987Z,100227.31
2022-10-14T06:26:27.543Z,100226.34
2022-10-14T06:28:55.044Z,100223.78
2022-10-14T06:31:22.983Z,100229.00
2022-10-14T06:33:50.437Z,100222.00
2022-10-14T06:36:17.881Z,100229.97
2022-10-14T06:38:46.670Z,100225.44
2022-10-14T06:41:14.115Z,100226.25
2022-10-14T06:43:41.572Z,100227.97
2022-10-14T06:46:09.020Z,100224.56
2022-10-14T06:48:36.530Z,100221.03
2022-10-14T06:51:04.116Z,100228.91
2022-10-14T06:53:31.564Z,100230.66
2022-10-14T06:56:01.100Z,100190.66
2022-10-14T06:58:28.642Z,100226.09
2022-10-14T07:03:28.470Z,100226.88
2022-10-14T07:05:55.920Z,100216.31
2022-10-14T07:08:23.383Z,100222.59
2022-10-14T07:10:50.852Z,100216.38
2022-10-14T07:13:19.645Z,100219.16
2022-10-14T07:15:48.681Z,100219.16
2022-10-14T07:18:16.193Z,100214.69
2022-10-14T07:20:43.781Z,100221.72
2022-10-14T07:23:11.210Z,100218.97
2022-10-14T07:25:38.625Z,100221.53
2022-10-14T07:28:06.243Z,100218.78
2022-10-14T07:30:35.010Z,100219.66
2022-10-14T07:33:02.540Z,100180.41
2022-10-14T07:35:30.015Z,100166.00
2022-10-14T07:37:58.853Z,100222.94
2022-10-14T07:40:26.298Z,100230.09
2022-10-14T07:42:53.738Z,100218.97
2022-10-14T07:45:21.182Z,100225.72
2022-10-14T07:47:50.586Z,100222.94
2022-10-14T07:50:18.251Z,100223.91
2022-10-14T07:52:45.707Z,100224.88
2022-10-14T07:55:13.174Z,100220.28
2022-10-14T07:57:40.599Z,100224.78
2022-10-14T08:00:09.027Z,100219.38
2022-10-14T08:02:36.516Z,100151.94
2022-10-14T08:05:33.059Z,100214.78
2022-10-14T08:07:53.586Z,100214.69
2022-10-14T08:10:21.024Z,100215.56
2022-10-14T08:12:48.461Z,100210.44
2022-10-14T08:15:15.906Z,100212.13
2022-10-14T08:17:43.370Z,100219.06
2022-10-14T08:20:12.554Z,100213.09
2022-10-14T08:24:59.500Z,100216.50
2022-10-14T08:27:27.032Z,100211.09
2022-10-14T08:29:55.176Z,100210.22
2022-10-14T08:32:23.551Z,100204.06
2022-10-14T08:34:51.335Z,100198.72
2022-10-14T08:37:20.105Z,100200.47
2022-10-14T08:39:47.524Z,100188.84
2022-10-14T08:42:35.553Z,100192.28
2022-10-14T08:45:08.033Z,100188.84
2022-10-14T08:47:36.897Z,100185.22
2022-10-14T08:50:07.600Z,100132.19
2022-10-14T08:52:38.620Z,100168.28
2022-10-14T08:55:18.756Z,100180.78
2022-10-14T08:57:48.875Z,100182.69
2022-10-14T09:00:17.319Z,100190.56
2022-10-14T09:02:46.116Z,100096.44
2022-10-14T09:05:14.961Z,100186.78
2022-10-14T09:07:43.826Z,100081.75
2022-10-14T09:10:13.421Z,100186.47
2022-10-14T09:12:42.591Z,100134.06
2022-10-14T09:15:15.110Z,100181.69
2022-10-14T09:17:44.106Z,100169.16
2022-10-14T09:20:17.718Z,100173.50
2022-10-14T09:22:47.876Z,100119.91
2022-10-14T09:25:15.371Z,100183.41
2022-10-14T09:27:42.917Z,100180.75
2022-10-14T09:30:14.509Z,100108.84
2022-10-14T09:32:44.063Z,100181.50
2022-10-14T09:35:14.248Z,100174.28
2022-10-14T09:37:42.122Z,100175.34
2022-10-14T09:40:17.944Z,100172.69
2022-10-14T09:42:48.716Z,100172.56
2022-10-14T09:45:17.274Z,100168.09
2022-10-14T09:47:47.291Z,100163.63
2022-10-14T09:50:21.732Z,100165.34
2022-10-14T09:52:52.242Z,100112.22
2022-10-14T09:55:21.430Z,100160.88
2022-10-14T09:57:48.863Z,100161.75
2022-10-14T10:00:26.166Z,100152.78
2022-10-14T10:02:55.140Z,100143.13
2022-10-14T10:05:24.862Z,100133.19
2022-10-14T10:08:02.367Z,100140.34
2022-10-14T10:10:31.567Z,100049.59
2022-10-14T10:12:59.081Z,100060.47
2022-10-14T10:15:26.508Z,100123.53
2022-10-14T10:17:54.111Z,100124.38
2022-10-14T10:20:28.080Z,100120.00
2022-10-14T10:22:56.349Z,100102.09
2022-10-14T10:25:28.061Z,100117.25
2022-10-14T10:27:58.629Z,100112.78
2022-10-14T10:30:27.948Z,100118.97
2022-10-14T10:33:11.723Z,100104.81
2022-10-14T10:35:48.883Z,100031.16
2022-10-14T10:38:20.447Z,100111.63
2022-10-14T10:40:50.871Z,100104.59
2022-10-14T10:43:31.313Z,100022.22
2022-10-14T10:46:08.317Z,100093.75
2022-10-14T10:48:39.876Z,100073.19
2022-10-14T10:51:08.789Z,100095.34
2022-10-14T10:53:51.977Z,100090.69
2022-10-14T10:56:23.949Z,100031.28
2022-10-14T10:59:06.357Z,100001.63
2022-10-14T11:01:41.214Z,100063.94
2022-10-14T11:04:17.838Z,100016.97
2022-10-14T11:07:04.314Z,100054.72
2022-10-14T11:09:53.001Z,100063.22
2022-10-14T11:12:23.489Z,99994.63
2022-10-14T11:17:54.904Z,100051.75
2022-10-14T11:20:28.422Z,100056.09
2022-10-14T11:23:14.433Z,100049.91
2022-10-14T11:25:49.046Z,100046.41
2022-10-14T11:28:20.122Z,100045.34
2022-10-14T11:30:51.941Z,99992.19
2022-10-14T11:33:44.318Z,100037.91
2022-10-14T11:36:18.367Z,100028.09
2022-10-14T11:39:04.851Z,100027.06
2022-10-14T11:41:37.825Z,100010.84
2022-10-14T11:44:08.315Z,99948.75
2022-10-14T11:46:38.249Z,100003.84
2022-10-14T11:49:10.369Z,100026.09
2022-10-14T11:51:40.490Z,99984.22
2022-10-14T11:54:11.109Z,100015.56
2022-10-14T11:56:42.244Z,100011.00
2022-10-14T11:59:23.813Z,100011.81
2022-10-14T12:01:53.453Z,100021.53
2022-10-14T12:04:23.680Z,100008.22
2022-10-14T12:06:53.287Z,99982.00
2022-10-14T12:09:22.993Z,100004.69
2022-10-14T12:11:51.557Z,99944.44
2022-10-14T12:14:19.956Z,100010.88
2022-10-14T12:16:47.797Z,100003.84
2022-10-14T12:19:20.439Z,99983.19
2022-10-14T12:21:50.692Z,99994.06
2022-10-14T12:24:20.024Z,99993.06
2022-10-14T12:26:52.382Z,99942.06
2022-10-14T12:29:21.608Z,99965.50
2022-10-14T12:31:50.476Z,99928.56
2022-10-14T12:34:34.651Z,99934.22
2022-10-14T12:37:02.268Z,99991.69
2022-10-14T12:39:32.061Z,99950.81
2022-10-14T12:42:00.648Z,99970.50
2022-10-14T12:44:32.321Z,99963.38
2022-10-14T12:46:59.782Z,99963.28
2022-10-14T12:49:28.885Z,99965.94
2022-10-14T12:51:58.802Z,99962.31
2022-10-14T12:54:26.241Z,99965.06
2022-10-14T12:56:57.562Z,99956.03
2022-10-14T12:59:26.379Z,99953.50
2022-10-14T13:01:57.648Z,99962.31
2022-10-14T13:04:25.138Z,99956.97
2022-10-14T13:07:40.418Z,99951.53
2022-10-14T13:10:28.571Z,99941.13
2022-10-14T13:12:56.039Z,99939.44
2022-10-14T13:15:36.281Z,99822.31
2022-10-14T13:18:22.344Z,99928.88
2022-10-14T13:20:52.865Z,99894.81
2022-10-14T13:23:32.774Z,99852.19
2022-10-14T13:26:15.879Z,99924.41
2022-10-14T13:28:45.250Z,99897.06
2022-10-14T13:31:13.873Z,99845.88
2022-10-14T13:33:43.443Z,99908.56
2022-10-14T13:36:17.009Z,99903.94
2022-10-14T13:38:47.354Z,99902.03
2022-10-14T13:41:18.371Z,99854.28
2022-10-14T13:43:46.110Z,99895.84
2022-10-14T13:46:15.203Z,99836.31
2022-10-14T13:48:44.941Z,99841.31
2022-10-14T13:51:37.387Z,99896.72
2022-10-14T13:54:18.252Z,99899.38
2022-10-14T13:56:45.791Z,99891.72
2022-10-14T13:59:39.334Z,99895.75
2022-10-14T14:02:12.819Z,99889.72
2022-10-14T14:04:40.253Z,99895.03
2022-10-14T14:07:38.155Z,99887.97
2022-10-14T14:09:59.844Z,99873.84
2022-10-14T14:12:27.332Z,99872.97
2022-10-14T14:14:54.830Z,99822.38
2022-10-14T14:17:23.397Z,99858.91
2022-10-14T14:19:51.470Z,99818.84
2022-10-14T14:22:21.307Z,99840.19
2022-10-14T14:24:48.948Z,99850.00
2022-10-14T14:27:20.166Z,99786.72
2022-10-14T14:29:49.414Z,99792.03
2022-10-14T14:32:18.364Z,99835.06
2022-10-14T14:34:46.996Z,99815.22
2022-10-14T14:40:04.157Z,99832.41
2022-10-14T14:42:35.786Z,99823.47
2022-10-14T14:45:05.341Z,99816.44
2022-10-14T14:47:32.954Z,99758.63
2022-10-14T14:52:48.279Z,99814.75
2022-10-14T14:55:38.336Z,99763.50
2022-10-14T14:58:13.137Z,99807.72
2022-10-14T15:00:44.968Z,99814.84
2022-10-14T15:03:12.405Z,99806.00
2022-10-14T15:05:39.830Z,99810.50
2022-10-14T15:08:07.268Z,99811.34
2022-10-14T15:10:34.693Z,99806.97
2022-10-14T15:13:02.957Z,99814.97
2022-10-14T15:15:32.481Z,99799.97
2022-10-14T15:18:13.550Z,99799.97
2022-10-14T15:20:41.908Z,99799.22
2022-10-14T15:23:38.455Z,99802.63
2022-10-14T15:26:06.747Z,99803.56
2022-10-14T15:28:34.339Z,99798.25
2022-10-14T15:31:05.643Z,99795.59
2022-10-14T15:33:33.416Z,99791.13
2022-10-14T15:36:01.658Z,99703.91
2022-10-14T15:38:29.450Z,99792.94
2022-10-14T15:40:56.906Z,99765.09
2022-10-14T15:43:25.480Z,99780.28
2022-10-14T15:46:08.164Z,99800.09
2022-10-14T15:48:37.374Z,99794.88
2022-10-14T15:51:05.120Z,99727.16
2022-10-14T15:53:32.544Z,99787.72
2022-10-14T15:56:00.582Z,99778.91
2022-10-14T15:58:28.048Z,99782.38
2022-10-14T16:00:55.464Z,99775.38
2022-10-14T16:03:22.953Z,99769.19
2022-10-14T16:05:52.147Z,99772.72
2022-10-14T16:08:19.694Z,99773.69
2022-10-14T16:10:47.120Z,99769.19
2022-10-14T16:13:14.562Z,99767.50
2022-10-14T16:15:45.074Z,99764.84
2022-10-14T16:18:12.517Z,99770.16
2022-10-14T16:20:39.991Z,99758.66
2022-10-14T16:23:08.765Z,99759.63
2022-10-14T16:25:38.838Z,99756.97
2022-10-14T16:28:09.978Z,99753.44
2022-10-14T16:30:38.264Z,99757.09
2022-10-14T16:33:05.874Z,99751.75
2022-10-14T16:35:33.381Z,99750.91
2022-10-14T16:38:00.844Z,99752.72
2022-10-14T16:40:34.285Z,99754.41
2022-10-14T16:43:04.240Z,99723.06
2022-10-14T16:45:31.663Z,99748.34
2022-10-14T16:47:59.157Z,99543.75
2022-10-14T16:50:26.606Z,99755.41
2022-10-14T16:53:11.636Z,99747.53
2022-10-14T16:55:40.393Z,99753.66
2022-10-14T16:58:07.836Z,99741.34
2022-10-14T17:00:35.256Z,99748.47
2022-10-14T17:03:02.988Z,99749.31
2022-10-14T17:05:30.426Z,99751.97
2022-10-14T17:07:57.887Z,99742.31
2022-10-14T17:10:25.607Z,99754.66
2022-10-14T17:12:55.318Z,99744.97
2022-10-14T17:15:23.377Z,99694.31
2022-10-14T17:17:50.876Z,99750.28
2022-10-14T17:20:20.188Z,99741.44
2022-10-14T17:22:49.587Z,99748.56
2022-10-14T17:25:17.721Z,99731.78
2022-10-14T17:27:45.149Z,99728.16
2022-10-14T17:30:14.292Z,99726.47
2022-10-14T17:32:41.736Z,99722.28
2022-10-14T17:35:12.848Z,99722.94
2022-10-14T17:37:42.624Z,99723.03
2022-10-14T17:40:10.908Z,99722.06
2022-10-14T17:42:38.342Z,99725.59
2022-10-14T17:45:07.005Z,99725.59
2022-10-14T17:47:35.761Z,99720.28
2022-10-14T17:50:03.203Z,99717.63
2022-10-14T17:52:30.873Z,99709.63
2022-10-14T17:55:00.600Z,99709.63
2022-10-14T17:57:29.076Z,99704.31
2022-10-14T17:59:56.622Z,99703.44
2022-10-14T18:02:45.198Z,99706.97
2022-10-14T18:05:48.073Z,99700.78
2022-10-14T18:11:49.705Z,99706.22
2022-10-14T18:14:31.090Z,99700.06
2022-10-14T18:17:16.453Z,99693.88
2022-10-14T18:19:52.003Z,99697.41
2022-10-14T18:22:25.185Z,99700.91
2022-10-14T18:25:09.770Z,99695.69
2022-10-14T18:27:48.898Z,99694.22
2022-10-14T18:30:36.964Z,99696.56
2022-10-14T18:36:02.787Z,99694.84
2022-10-14T18:38:39.573Z,99650.69
2022-10-14T18:41:25.247Z,99629.84
2022-10-14T18:44:08.037Z,99673.47
2022-10-14T18:46:46.247Z,99673.47
2022-10-14T18:49:26.499Z,99664.63
2022-10-14T18:52:05.737Z,99677.06
2022-10-14T18:54:43.959Z,99661.97
2022-10-14T18:57:21.029Z,99654.44
2022-10-14T19:00:13.506Z,99665.59
2022-10-14T19:02:48.093Z,99664.72
2022-10-14T19:05:22.774Z,99631.72
2022-10-14T19:07:57.476Z,99669.94
2022-10-14T19:10:46.643Z,99675.25
2022-10-14T19:13:45.914Z,99631.31
2022-10-14T19:16:32.017Z,99670.06
2022-10-14T19:19:06.076Z,99680.69
2022-10-14T19:21:42.080Z,99679.84
2022-10-14T19:24:32.992Z,99670.91
2022-10-14T19:27:17.720Z,99670.91
2022-10-14T19:30:12.606Z,99673.56
2022-10-14T19:32:52.800Z,99662.19
2022-10-14T19:35:27.328Z,99671.25
2022-10-14T19:38:06.653Z,99670.16
2022-10-14T19:41:01.140Z,99667.50
2022-10-14T19:43:35.762Z,99643.50
2022-10-14T19:46:12.632Z,99659.53
2022-10-14T19:48:52.671Z,99598.38
2022-10-14T19:51:31.301Z,99648.88
2022-10-14T19:54:05.418Z,99641.13
2022-10-14T19:56:46.729Z,99641.88
2022-10-14T19:59:17.603Z,99640.03
2022-10-14T20:01:59.889Z,99635.56
2022-10-14T20:04:28.493Z,99630.25
2022-10-14T20:06:59.825Z,99605.31
2022-10-14T20:09:42.126Z,99613.66
2022-10-14T20:12:35.118Z,99611.63
2022-10-14T20:15:23.561Z,99607.28
2022-10-14T20:18:00.749Z,99618.75
2022-10-14T20:20:39.909Z,99608.00
2022-10-14T20:23:29.090Z,99613.44
2022-10-14T20:29:02.195Z,99618.03
2022-10-14T20:31:35.735Z,99616.09
2022-10-14T20:34:17.776Z,99615.25
2022-10-14T20:36:57.188Z,99586.41
2022-10-14T20:39:33.031Z,99621.53
2022-10-14T20:42:08.817Z,99615.38
2022-10-14T20:44:42.779Z,99619.84
2022-10-14T20:47:20.284Z,99617.06
2022-10-14T20:49:51.343Z,99609.19
2022-10-14T20:52:25.390Z,99602.91
2022-10-14T20:55:02.640Z,99610.88
2022-10-14T20:57:36.966Z,99616.22
2022-10-14T21:00:09.008Z,99614.53
2022-10-14T21:02:49.088Z,99585.41
2022-10-14T21:05:31.124Z,99605.56
2022-10-14T21:08:05.255Z,99570.38
2022-10-14T21:10:45.931Z,99615.38
2022-10-14T21:13:27.653Z,99611.00
2022-10-14T21:16:06.855Z,99603.88
2022-10-14T21:18:55.083Z,99607.50
2022-10-14T21:21:31.502Z,99604.84
2022-10-14T21:24:05.245Z,99609.31
2022-10-14T21:26:46.797Z,99603.88
2022-10-14T21:29:27.649Z,99600.47
2022-10-14T21:32:07.775Z,99609.19
2022-10-14T21:34:41.523Z,99601.56
2022-10-14T21:37:24.383Z,99603.25
2022-10-14T21:39:57.770Z,99599.66
2022-10-14T21:42:49.879Z,99592.50
2022-10-14T21:45:18.803Z,99589.84
2022-10-14T21:47:54.622Z,99591.66
2022-10-14T21:50:57.867Z,99595.16
2022-10-14T21:53:33.823Z,99590.19
2022-10-14T21:56:20.985Z,99565.69
2022-10-14T21:59:16.946Z,99584.97
2022-10-14T22:01:50.864Z,99589.13
2022-10-14T22:05:04.985Z,99573.97
2022-10-14T22:07:51.005Z,99573.16
2022-10-14T22:11:05.462Z,99587.41
2022-10-14T22:13:51.517Z,99589.13
2022-10-14T22:16:19.012Z,99580.28
2022-10-14T22:18:46.708Z,99581.97
2022-10-14T22:21:15.041Z,99573.16
2022-10-14T22:23:43.890Z,99585.50
2022-10-14T22:26:13.019Z,99544.63
2022-10-14T22:28:40.555Z,99552.50
2022-10-14T22:31:08.505Z,99554.31
2022-10-14T22:33:36.826Z,99528.72
2022-10-14T22:36:08.576Z,99510.09
2022-10-14T22:38:36.300Z,99588.25
2022-10-14T22:41:05.517Z,99589.94
2022-10-14T22:43:33.020Z,99596.97
2022-10-14T22:46:01.268Z,99578.47
2022-10-14T22:48:29.226Z,99581.13
2022-10-14T22:50:56.743Z,99535.78
2022-10-14T22:53:24.950Z,99582.81
2022-10-14T22:55:52.740Z,99502.53
2022-10-14T22:58:21.546Z,99581.13
2022-10-14T23:00:48.965Z,99582.09
2022-10-14T23:03:16.427Z,99583.91
2022-10-14T23:05:43.947Z,99534.06
2022-10-14T23:08:14.291Z,99584.75
2022-10-14T23:10:41.914Z,99578.59
2022-10-14T23:13:09.425Z,99591.91
2022-10-14T23:15:38.191Z,99586.56
2022-10-14T23:18:05.757Z,99590.06
2022-10-14T23:20:34.130Z,99591.91
2022-10-14T23:23:01.566Z,99590.06
2022-10-14T23:25:29.026Z,99588.38
2022-10-14T23:27:56.613Z,99580.41
2022-10-14T23:30:24.046Z,99576.88
2022-10-14T23:32:52.822Z,99572.41
2022-10-14T23:35:20.291Z,99526.81
2022-10-14T23:37:47.754Z,99567.56
2022-10-14T23:40:15.355Z,99569.88
2022-10-14T23:42:42.835Z,99567.09
2022-10-14T23:45:11.245Z,99528.50
2022-10-14T23:47:38.688Z,99569.75
2022-10-14T23:50:08.677Z,99567.94
2022-10-14T23:52:36.126Z,99569.75
2022-10-14T23:55:03.582Z,99538.34
2022-10-14T23:57:31.035Z,99565.41
2022-10-14T23:59:58.461Z,99566.56
